sensor_id;sensor_type;location;lat;lon;timestamp;P1;durP1;ratioP1;P2;durP2;ratioP2
8592;SDS011;4334;49.982;8.398;2024-03-02T00:00:06;11.17;;;6.20;;
8592;SDS011;4334;49.982;8.398;2024-03-02T00:02:39;9.10;;;6.03;;
8592;SDS011;4334;49.982;8.398;2024-03-02T00:05:08;12.03;;;7.03;;
8592;SDS011;4334;49.982;8.398;2024-03-02T00:07:37;11.03;;;6.23;;
8592;SDS011;4334;49.982;8.398;2024-03-02T00:10:07;10.40;;;6.20;;
8592;SDS011;4334;49.982;8.398;2024-03-02T00:12:36;10.27;;;5.80;;
8592;SDS011;4334;49.982;8.398;2024-03-02T00:15:04;10.23;;;6.37;;
8592;SDS011;4334;49.982;8.398;2024-03-02T00:17:32;9.27;;;5.90;;
8592;SDS011;4334;49.982;8.398;2024-03-02T00:19:59;10.67;;;6.40;;
8592;SDS011;4334;49.982;8.398;2024-03-02T00:22:29;11.50;;;6.77;;
8592;SDS011;4334;49.982;8.398;2024-03-02T00:24:56;10.97;;;6.57;;
8592;SDS011;4334;49.982;8.398;2024-03-02T00:27:22;9.83;;;6.20;;
8592;SDS011;4334;49.982;8.398;2024-03-02T00:29:50;14.23;;;6.90;;
8592;SDS011;4334;49.982;8.398;2024-03-02T00:32:17;10.60;;;5.63;;
8592;SDS011;4334;49.982;8.398;2024-03-02T00:34:43;11.80;;;7.00;;
8592;SDS011;4334;49.982;8.398;2024-03-02T00:37:10;13.83;;;7.10;;
8592;SDS011;4334;49.982;8.398;2024-03-02T00:39:39;10.40;;;6.53;;
8592;SDS011;4334;49.982;8.398;2024-03-02T00:42:06;10.87;;;6.70;;
8592;SDS011;4334;49.982;8.398;2024-03-02T00:44:33;9.63;;;6.17;;
8592;SDS011;4334;49.982;8.398;2024-03-02T00:47:00;13.83;;;5.90;;
8592;SDS011;4334;49.982;8.398;2024-03-02T00:49:28;13.23;;;6.73;;
8592;SDS011;4334;49.982;8.398;2024-03-02T00:51:55;8.77;;;5.83;;
8592;SDS011;4334;49.982;8.398;2024-03-02T00:54:22;11.50;;;6.27;;
8592;SDS011;4334;49.982;8.398;2024-03-02T00:56:52;12.37;;;6.10;;
8592;SDS011;4334;49.982;8.398;2024-03-02T00:59:20;11.07;;;7.23;;
8592;SDS011;4334;49.982;8.398;2024-03-02T01:01:47;12.10;;;6.93;;
8592;SDS011;4334;49.982;8.398;2024-03-02T01:04:14;19.70;;;7.03;;
8592;SDS011;4334;49.982;8.398;2024-03-02T01:06:41;12.80;;;6.63;;
8592;SDS011;4334;49.982;8.398;2024-03-02T01:09:08;10.27;;;6.43;;
8592;SDS011;4334;49.982;8.398;2024-03-02T01:11:35;11.40;;;6.97;;
8592;SDS011;4334;49.982;8.398;2024-03-02T01:14:03;10.40;;;6.10;;
8592;SDS011;4334;49.982;8.398;2024-03-02T01:16:30;11.40;;;6.87;;
8592;SDS011;4334;49.982;8.398;2024-03-02T01:18:57;11.50;;;7.00;;
8592;SDS011;4334;49.982;8.398;2024-03-02T01:21:23;9.50;;;6.90;;
8592;SDS011;4334;49.982;8.398;2024-03-02T01:23:50;11.00;;;7.40;;
8592;SDS011;4334;49.982;8.398;2024-03-02T01:26:17;15.30;;;8.10;;
8592;SDS011;4334;49.982;8.398;2024-03-02T01:28:43;11.10;;;7.10;;
8592;SDS011;4334;49.982;8.398;2024-03-02T01:31:11;13.30;;;7.13;;
8592;SDS011;4334;49.982;8.398;2024-03-02T01:33:38;11.03;;;7.13;;
8592;SDS011;4334;49.982;8.398;2024-03-02T01:36:05;12.97;;;7.50;;
8592;SDS011;4334;49.982;8.398;2024-03-02T01:38:33;13.43;;;6.83;;
8592;SDS011;4334;49.982;8.398;2024-03-02T01:41:00;10.60;;;7.03;;
8592;SDS011;4334;49.982;8.398;2024-03-02T01:43:27;9.83;;;6.40;;
8592;SDS011;4334;49.982;8.398;2024-03-02T01:45:54;16.30;;;7.57;;
8592;SDS011;4334;49.982;8.398;2024-03-02T01:48:23;10.77;;;7.03;;
8592;SDS011;4334;49.982;8.398;2024-03-02T01:50:49;13.30;;;7.40;;
8592;SDS011;4334;49.982;8.398;2024-03-02T01:53:16;12.13;;;7.03;;
8592;SDS011;4334;49.982;8.398;2024-03-02T01:55:44;13.83;;;7.73;;
8592;SDS011;4334;49.982;8.398;2024-03-02T01:58:10;15.90;;;7.57;;
8592;SDS011;4334;49.982;8.398;2024-03-02T02:00:37;12.93;;;7.77;;
8592;SDS011;4334;49.982;8.398;2024-03-02T02:03:04;11.77;;;7.53;;
8592;SDS011;4334;49.982;8.398;2024-03-02T02:05:33;16.80;;;8.43;;
8592;SDS011;4334;49.982;8.398;2024-03-02T02:08:00;14.60;;;7.40;;
8592;SDS011;4334;49.982;8.398;2024-03-02T02:10:28;13.13;;;7.57;;
8592;SDS011;4334;49.982;8.398;2024-03-02T02:12:55;14.03;;;7.53;;
8592;SDS011;4334;49.982;8.398;2024-03-02T02:15:25;11.93;;;7.23;;
8592;SDS011;4334;49.982;8.398;2024-03-02T02:17:52;13.33;;;7.73;;
8592;SDS011;4334;49.982;8.398;2024-03-02T02:20:19;14.30;;;7.40;;
8592;SDS011;4334;49.982;8.398;2024-03-02T02:22:55;13.10;;;7.63;;
8592;SDS011;4334;49.982;8.398;2024-03-02T02:25:22;16.03;;;8.10;;
8592;SDS011;4334;49.982;8.398;2024-03-02T02:27:49;12.03;;;7.50;;
8592;SDS011;4334;49.982;8.398;2024-03-02T02:30:18;13.73;;;7.03;;
8592;SDS011;4334;49.982;8.398;2024-03-02T02:32:45;12.63;;;7.50;;
8592;SDS011;4334;49.982;8.398;2024-03-02T02:35:12;18.87;;;6.67;;
8592;SDS011;4334;49.982;8.398;2024-03-02T02:37:39;12.40;;;6.77;;
8592;SDS011;4334;49.982;8.398;2024-03-02T02:40:08;13.33;;;8.20;;
8592;SDS011;4334;49.982;8.398;2024-03-02T02:42:35;13.03;;;6.90;;
8592;SDS011;4334;49.982;8.398;2024-03-02T02:45:02;15.00;;;7.23;;
8592;SDS011;4334;49.982;8.398;2024-03-02T02:47:29;12.40;;;7.47;;
8592;SDS011;4334;49.982;8.398;2024-03-02T02:49:58;13.90;;;7.50;;
8592;SDS011;4334;49.982;8.398;2024-03-02T02:52:26;11.10;;;7.40;;
8592;SDS011;4334;49.982;8.398;2024-03-02T02:54:58;10.73;;;7.27;;
8592;SDS011;4334;49.982;8.398;2024-03-02T02:57:26;12.47;;;7.50;;
8592;SDS011;4334;49.982;8.398;2024-03-02T02:59:53;10.83;;;7.20;;
8592;SDS011;4334;49.982;8.398;2024-03-02T03:02:19;9.80;;;6.83;;
8592;SDS011;4334;49.982;8.398;2024-03-02T03:04:46;13.17;;;7.73;;
8592;SDS011;4334;49.982;8.398;2024-03-02T03:07:13;12.33;;;7.10;;
8592;SDS011;4334;49.982;8.398;2024-03-02T03:09:40;11.33;;;7.10;;
8592;SDS011;4334;49.982;8.398;2024-03-02T03:12:06;14.47;;;7.63;;
8592;SDS011;4334;49.982;8.398;2024-03-02T03:14:35;11.70;;;7.50;;
8592;SDS011;4334;49.982;8.398;2024-03-02T03:17:01;11.93;;;7.70;;
8592;SDS011;4334;49.982;8.398;2024-03-02T03:19:28;12.23;;;7.83;;
8592;SDS011;4334;49.982;8.398;2024-03-02T03:21:56;13.57;;;8.07;;
8592;SDS011;4334;49.982;8.398;2024-03-02T03:24:22;17.60;;;7.80;;
8592;SDS011;4334;49.982;8.398;2024-03-02T03:26:49;12.83;;;8.00;;
8592;SDS011;4334;49.982;8.398;2024-03-02T03:29:15;13.23;;;7.97;;
8592;SDS011;4334;49.982;8.398;2024-03-02T03:31:43;13.67;;;8.13;;
8592;SDS011;4334;49.982;8.398;2024-03-02T03:34:10;12.80;;;7.60;;
8592;SDS011;4334;49.982;8.398;2024-03-02T03:36:40;11.30;;;7.43;;
8592;SDS011;4334;49.982;8.398;2024-03-02T03:39:07;16.63;;;8.37;;
8592;SDS011;4334;49.982;8.398;2024-03-02T03:41:34;12.37;;;7.80;;
8592;SDS011;4334;49.982;8.398;2024-03-02T03:44:01;13.27;;;7.83;;
8592;SDS011;4334;49.982;8.398;2024-03-02T03:46:28;13.80;;;8.07;;
8592;SDS011;4334;49.982;8.398;2024-03-02T03:48:56;15.27;;;8.47;;
8592;SDS011;4334;49.982;8.398;2024-03-02T03:51:23;10.63;;;7.20;;
8592;SDS011;4334;49.982;8.398;2024-03-02T03:53:49;14.80;;;8.10;;
8592;SDS011;4334;49.982;8.398;2024-03-02T03:56:16;15.00;;;8.03;;
8592;SDS011;4334;49.982;8.398;2024-03-02T03:58:43;12.73;;;8.10;;
8592;SDS011;4334;49.982;8.398;2024-03-02T04:01:09;12.57;;;7.57;;
8592;SDS011;4334;49.982;8.398;2024-03-02T04:03:36;17.10;;;8.67;;
8592;SDS011;4334;49.982;8.398;2024-03-02T04:06:05;14.23;;;8.13;;
8592;SDS011;4334;49.982;8.398;2024-03-02T04:08:32;16.23;;;8.73;;
8592;SDS011;4334;49.982;8.398;2024-03-02T04:10:59;12.53;;;7.90;;
8592;SDS011;4334;49.982;8.398;2024-03-02T04:13:26;10.87;;;7.63;;
8592;SDS011;4334;49.982;8.398;2024-03-02T04:15:52;14.30;;;8.70;;
8592;SDS011;4334;49.982;8.398;2024-03-02T04:18:19;16.10;;;8.70;;
8592;SDS011;4334;49.982;8.398;2024-03-02T04:20:46;15.47;;;8.83;;
8592;SDS011;4334;49.982;8.398;2024-03-02T04:23:14;12.50;;;8.67;;
8592;SDS011;4334;49.982;8.398;2024-03-02T04:25:41;19.40;;;9.20;;
8592;SDS011;4334;49.982;8.398;2024-03-02T04:28:07;16.37;;;8.87;;
8592;SDS011;4334;49.982;8.398;2024-03-02T04:30:34;16.77;;;8.40;;
8592;SDS011;4334;49.982;8.398;2024-03-02T04:33:01;16.77;;;9.03;;
8592;SDS011;4334;49.982;8.398;2024-03-02T04:35:28;16.20;;;8.33;;
8592;SDS011;4334;49.982;8.398;2024-03-02T04:37:55;16.27;;;8.83;;
8592;SDS011;4334;49.982;8.398;2024-03-02T04:40:23;17.70;;;10.03;;
8592;SDS011;4334;49.982;8.398;2024-03-02T04:42:50;17.77;;;8.80;;
8592;SDS011;4334;49.982;8.398;2024-03-02T04:45:16;17.30;;;9.83;;
8592;SDS011;4334;49.982;8.398;2024-03-02T04:47:43;16.67;;;9.47;;
8592;SDS011;4334;49.982;8.398;2024-03-02T04:50:10;20.67;;;8.70;;
8592;SDS011;4334;49.982;8.398;2024-03-02T04:52:36;18.63;;;9.70;;
8592;SDS011;4334;49.982;8.398;2024-03-02T04:55:03;17.03;;;8.87;;
8592;SDS011;4334;49.982;8.398;2024-03-02T04:57:55;16.90;;;9.37;;
8592;SDS011;4334;49.982;8.398;2024-03-02T05:00:22;14.40;;;8.43;;
8592;SDS011;4334;49.982;8.398;2024-03-02T05:02:49;16.10;;;7.97;;
8592;SDS011;4334;49.982;8.398;2024-03-02T05:05:16;15.20;;;8.57;;
8592;SDS011;4334;49.982;8.398;2024-03-02T05:07:42;14.73;;;8.63;;
8592;SDS011;4334;49.982;8.398;2024-03-02T05:10:09;17.67;;;8.47;;
8592;SDS011;4334;49.982;8.398;2024-03-02T05:12:37;16.10;;;8.63;;
8592;SDS011;4334;49.982;8.398;2024-03-02T05:15:23;14.23;;;8.77;;
8592;SDS011;4334;49.982;8.398;2024-03-02T05:17:49;18.70;;;9.27;;
8592;SDS011;4334;49.982;8.398;2024-03-02T05:20:16;15.53;;;8.67;;
8592;SDS011;4334;49.982;8.398;2024-03-02T05:22:43;16.23;;;9.20;;
8592;SDS011;4334;49.982;8.398;2024-03-02T05:25:09;24.50;;;9.53;;
8592;SDS011;4334;49.982;8.398;2024-03-02T05:27:36;21.60;;;9.33;;
8592;SDS011;4334;49.982;8.398;2024-03-02T05:30:03;18.40;;;10.60;;
8592;SDS011;4334;49.982;8.398;2024-03-02T05:32:33;16.13;;;9.63;;
8592;SDS011;4334;49.982;8.398;2024-03-02T05:35:00;16.77;;;9.87;;
8592;SDS011;4334;49.982;8.398;2024-03-02T05:37:28;20.10;;;11.07;;
8592;SDS011;4334;49.982;8.398;2024-03-02T05:39:54;20.30;;;10.70;;
8592;SDS011;4334;49.982;8.398;2024-03-02T05:42:21;22.60;;;11.93;;
8592;SDS011;4334;49.982;8.398;2024-03-02T05:44:48;17.50;;;9.93;;
8592;SDS011;4334;49.982;8.398;2024-03-02T05:47:14;22.67;;;10.80;;
8592;SDS011;4334;49.982;8.398;2024-03-02T05:49:42;22.33;;;11.57;;
8592;SDS011;4334;49.982;8.398;2024-03-02T05:52:09;17.20;;;10.13;;
8592;SDS011;4334;49.982;8.398;2024-03-02T05:54:36;18.70;;;10.37;;
8592;SDS011;4334;49.982;8.398;2024-03-02T05:57:03;20.90;;;10.57;;
8592;SDS011;4334;49.982;8.398;2024-03-02T05:59:51;19.87;;;10.27;;
8592;SDS011;4334;49.982;8.398;2024-03-02T06:02:18;17.23;;;10.53;;
8592;SDS011;4334;49.982;8.398;2024-03-02T06:04:46;16.57;;;10.83;;
8592;SDS011;4334;49.982;8.398;2024-03-02T06:07:13;24.60;;;11.67;;
8592;SDS011;4334;49.982;8.398;2024-03-02T06:09:40;21.13;;;11.37;;
8592;SDS011;4334;49.982;8.398;2024-03-02T06:12:07;17.60;;;10.23;;
8592;SDS011;4334;49.982;8.398;2024-03-02T06:14:34;19.50;;;11.07;;
8592;SDS011;4334;49.982;8.398;2024-03-02T06:17:00;20.37;;;10.77;;
8592;SDS011;4334;49.982;8.398;2024-03-02T06:19:27;18.63;;;11.17;;
8592;SDS011;4334;49.982;8.398;2024-03-02T06:21:55;24.43;;;14.63;;
8592;SDS011;4334;49.982;8.398;2024-03-02T06:24:22;24.27;;;11.87;;
8592;SDS011;4334;49.982;8.398;2024-03-02T06:26:51;22.50;;;12.50;;
8592;SDS011;4334;49.982;8.398;2024-03-02T06:29:18;21.63;;;11.57;;
8592;SDS011;4334;49.982;8.398;2024-03-02T06:31:44;23.30;;;11.67;;
8592;SDS011;4334;49.982;8.398;2024-03-02T06:34:11;20.40;;;12.07;;
8592;SDS011;4334;49.982;8.398;2024-03-02T06:36:38;21.87;;;12.17;;
8592;SDS011;4334;49.982;8.398;2024-03-02T06:39:07;22.17;;;12.27;;
8592;SDS011;4334;49.982;8.398;2024-03-02T06:41:34;26.60;;;12.60;;
8592;SDS011;4334;49.982;8.398;2024-03-02T06:44:02;23.90;;;13.03;;
8592;SDS011;4334;49.982;8.398;2024-03-02T06:46:29;23.17;;;12.43;;
8592;SDS011;4334;49.982;8.398;2024-03-02T06:48:55;23.40;;;13.10;;
8592;SDS011;4334;49.982;8.398;2024-03-02T06:51:22;23.83;;;11.93;;
8592;SDS011;4334;49.982;8.398;2024-03-02T06:53:49;22.30;;;12.00;;
8592;SDS011;4334;49.982;8.398;2024-03-02T06:56:17;22.27;;;12.13;;
8592;SDS011;4334;49.982;8.398;2024-03-02T06:58:43;23.90;;;12.43;;
8592;SDS011;4334;49.982;8.398;2024-03-02T07:01:10;22.87;;;12.50;;
8592;SDS011;4334;49.982;8.398;2024-03-02T07:03:37;25.20;;;12.70;;
8592;SDS011;4334;49.982;8.398;2024-03-02T07:06:04;24.43;;;12.00;;
8592;SDS011;4334;49.982;8.398;2024-03-02T07:08:31;26.33;;;13.37;;
8592;SDS011;4334;49.982;8.398;2024-03-02T07:10:57;26.57;;;12.20;;
8592;SDS011;4334;49.982;8.398;2024-03-02T07:13:25;24.57;;;13.30;;
8592;SDS011;4334;49.982;8.398;2024-03-02T07:15:52;23.37;;;13.67;;
8592;SDS011;4334;49.982;8.398;2024-03-02T07:18:47;24.53;;;13.23;;
8592;SDS011;4334;49.982;8.398;2024-03-02T07:21:16;25.93;;;12.73;;
8592;SDS011;4334;49.982;8.398;2024-03-02T07:23:43;23.03;;;12.77;;
8592;SDS011;4334;49.982;8.398;2024-03-02T07:26:10;27.93;;;14.87;;
8592;SDS011;4334;49.982;8.398;2024-03-02T07:28:38;24.67;;;13.63;;
8592;SDS011;4334;49.982;8.398;2024-03-02T07:31:05;23.23;;;12.23;;
8592;SDS011;4334;49.982;8.398;2024-03-02T07:33:32;26.43;;;13.83;;
8592;SDS011;4334;49.982;8.398;2024-03-02T07:35:59;23.30;;;13.87;;
8592;SDS011;4334;49.982;8.398;2024-03-02T07:38:27;26.97;;;14.03;;
8592;SDS011;4334;49.982;8.398;2024-03-02T07:40:54;25.30;;;13.70;;
8592;SDS011;4334;49.982;8.398;2024-03-02T07:43:21;17.87;;;12.43;;
8592;SDS011;4334;49.982;8.398;2024-03-02T07:45:49;26.23;;;14.53;;
8592;SDS011;4334;49.982;8.398;2024-03-02T07:48:16;24.63;;;13.43;;
8592;SDS011;4334;49.982;8.398;2024-03-02T07:50:42;25.33;;;13.77;;
8592;SDS011;4334;49.982;8.398;2024-03-02T07:53:09;19.93;;;12.37;;
8592;SDS011;4334;49.982;8.398;2024-03-02T07:55:36;19.50;;;12.13;;
8592;SDS011;4334;49.982;8.398;2024-03-02T07:58:03;19.37;;;11.17;;
8592;SDS011;4334;49.982;8.398;2024-03-02T08:00:30;15.83;;;10.03;;
8592;SDS011;4334;49.982;8.398;2024-03-02T08:02:58;15.70;;;9.53;;
8592;SDS011;4334;49.982;8.398;2024-03-02T08:05:25;16.47;;;9.83;;
8592;SDS011;4334;49.982;8.398;2024-03-02T08:07:52;16.40;;;9.63;;
8592;SDS011;4334;49.982;8.398;2024-03-02T08:10:19;17.47;;;10.33;;
8592;SDS011;4334;49.982;8.398;2024-03-02T08:12:46;15.03;;;9.30;;
8592;SDS011;4334;49.982;8.398;2024-03-02T08:15:13;15.23;;;9.77;;
8592;SDS011;4334;49.982;8.398;2024-03-02T08:17:39;14.07;;;9.63;;
8592;SDS011;4334;49.982;8.398;2024-03-02T08:20:11;17.43;;;9.83;;
8592;SDS011;4334;49.982;8.398;2024-03-02T08:22:39;16.90;;;9.50;;
8592;SDS011;4334;49.982;8.398;2024-03-02T08:25:06;14.73;;;9.80;;
8592;SDS011;4334;49.982;8.398;2024-03-02T08:27:34;17.50;;;10.40;;
8592;SDS011;4334;49.982;8.398;2024-03-02T08:30:01;12.73;;;8.87;;
8592;SDS011;4334;49.982;8.398;2024-03-02T08:32:31;12.63;;;8.30;;
8592;SDS011;4334;49.982;8.398;2024-03-02T08:34:58;15.37;;;9.30;;
8592;SDS011;4334;49.982;8.398;2024-03-02T08:37:26;12.80;;;8.50;;
8592;SDS011;4334;49.982;8.398;2024-03-02T08:39:52;11.93;;;8.73;;
8592;SDS011;4334;49.982;8.398;2024-03-02T08:42:19;17.40;;;8.77;;
8592;SDS011;4334;49.982;8.398;2024-03-02T08:44:46;13.37;;;8.77;;
8592;SDS011;4334;49.982;8.398;2024-03-02T08:47:13;13.63;;;8.97;;
8592;SDS011;4334;49.982;8.398;2024-03-02T08:49:39;12.70;;;8.70;;
8592;SDS011;4334;49.982;8.398;2024-03-02T08:52:06;13.23;;;8.33;;
8592;SDS011;4334;49.982;8.398;2024-03-02T08:54:34;12.97;;;7.83;;
8592;SDS011;4334;49.982;8.398;2024-03-02T08:57:02;14.37;;;8.33;;
8592;SDS011;4334;49.982;8.398;2024-03-02T08:59:29;15.10;;;8.90;;
8592;SDS011;4334;49.982;8.398;2024-03-02T09:01:56;11.37;;;8.23;;
8592;SDS011;4334;49.982;8.398;2024-03-02T09:04:23;11.83;;;8.20;;
8592;SDS011;4334;49.982;8.398;2024-03-02T09:06:50;12.70;;;7.17;;
8592;SDS011;4334;49.982;8.398;2024-03-02T09:09:17;12.87;;;8.50;;
8592;SDS011;4334;49.982;8.398;2024-03-02T09:11:45;12.43;;;7.73;;
8592;SDS011;4334;49.982;8.398;2024-03-02T09:14:12;13.20;;;7.63;;
8592;SDS011;4334;49.982;8.398;2024-03-02T09:16:40;12.70;;;7.40;;
8592;SDS011;4334;49.982;8.398;2024-03-02T09:19:06;11.23;;;7.70;;
8592;SDS011;4334;49.982;8.398;2024-03-02T09:21:34;13.17;;;8.10;;
8592;SDS011;4334;49.982;8.398;2024-03-02T09:24:01;10.60;;;7.50;;
8592;SDS011;4334;49.982;8.398;2024-03-02T09:26:28;11.97;;;7.83;;
8592;SDS011;4334;49.982;8.398;2024-03-02T09:28:56;13.73;;;7.70;;
8592;SDS011;4334;49.982;8.398;2024-03-02T09:31:23;10.03;;;6.63;;
8592;SDS011;4334;49.982;8.398;2024-03-02T09:33:50;9.67;;;6.90;;
8592;SDS011;4334;49.982;8.398;2024-03-02T09:36:16;9.00;;;6.83;;
8592;SDS011;4334;49.982;8.398;2024-03-02T09:38:43;8.80;;;6.73;;
8592;SDS011;4334;49.982;8.398;2024-03-02T09:41:10;10.80;;;6.73;;
8592;SDS011;4334;49.982;8.398;2024-03-02T09:43:37;8.93;;;6.13;;
8592;SDS011;4334;49.982;8.398;2024-03-02T09:46:05;12.03;;;5.77;;
8592;SDS011;4334;49.982;8.398;2024-03-02T09:48:34;9.03;;;6.33;;
8592;SDS011;4334;49.982;8.398;2024-03-02T09:51:01;8.97;;;5.70;;
8592;SDS011;4334;49.982;8.398;2024-03-02T09:53:31;9.70;;;5.87;;
8592;SDS011;4334;49.982;8.398;2024-03-02T09:55:58;8.47;;;6.00;;
8592;SDS011;4334;49.982;8.398;2024-03-02T09:58:25;9.37;;;5.80;;
8592;SDS011;4334;49.982;8.398;2024-03-02T10:00:52;9.67;;;6.17;;
8592;SDS011;4334;49.982;8.398;2024-03-02T10:03:20;7.67;;;5.97;;
8592;SDS011;4334;49.982;8.398;2024-03-02T10:05:49;8.63;;;5.60;;
8592;SDS011;4334;49.982;8.398;2024-03-02T10:08:16;9.00;;;5.87;;
8592;SDS011;4334;49.982;8.398;2024-03-02T10:10:43;9.07;;;6.07;;
8592;SDS011;4334;49.982;8.398;2024-03-02T10:13:11;7.67;;;5.63;;
8592;SDS011;4334;49.982;8.398;2024-03-02T10:15:39;9.17;;;5.47;;
8592;SDS011;4334;49.982;8.398;2024-03-02T10:18:08;7.47;;;5.13;;
8592;SDS011;4334;49.982;8.398;2024-03-02T10:20:37;8.23;;;5.97;;
8592;SDS011;4334;49.982;8.398;2024-03-02T10:23:09;9.47;;;5.10;;
8592;SDS011;4334;49.982;8.398;2024-03-02T10:25:37;9.30;;;5.83;;
8592;SDS011;4334;49.982;8.398;2024-03-02T10:28:04;8.27;;;5.43;;
8592;SDS011;4334;49.982;8.398;2024-03-02T10:30:31;7.83;;;5.70;;
8592;SDS011;4334;49.982;8.398;2024-03-02T10:32:58;9.97;;;5.57;;
8592;SDS011;4334;49.982;8.398;2024-03-02T10:35:25;7.57;;;5.57;;
8592;SDS011;4334;49.982;8.398;2024-03-02T10:37:54;7.00;;;5.20;;
8592;SDS011;4334;49.982;8.398;2024-03-02T10:40:21;8.40;;;5.00;;
8592;SDS011;4334;49.982;8.398;2024-03-02T10:42:49;7.63;;;5.50;;
8592;SDS011;4334;49.982;8.398;2024-03-02T10:45:16;8.60;;;5.20;;
8592;SDS011;4334;49.982;8.398;2024-03-02T10:47:45;7.70;;;5.17;;
8592;SDS011;4334;49.982;8.398;2024-03-02T10:50:12;6.40;;;4.90;;
8592;SDS011;4334;49.982;8.398;2024-03-02T10:52:39;8.27;;;5.47;;
8592;SDS011;4334;49.982;8.398;2024-03-02T10:55:08;6.43;;;5.03;;
8592;SDS011;4334;49.982;8.398;2024-03-02T10:57:40;6.80;;;4.73;;
8592;SDS011;4334;49.982;8.398;2024-03-02T11:00:11;9.17;;;4.97;;
8592;SDS011;4334;49.982;8.398;2024-03-02T11:02:41;8.53;;;5.20;;
8592;SDS011;4334;49.982;8.398;2024-03-02T11:05:13;8.87;;;4.70;;
8592;SDS011;4334;49.982;8.398;2024-03-02T11:07:47;7.80;;;5.00;;
8592;SDS011;4334;49.982;8.398;2024-03-02T11:10:15;7.30;;;5.07;;
8592;SDS011;4334;49.982;8.398;2024-03-02T11:12:43;7.77;;;5.00;;
8592;SDS011;4334;49.982;8.398;2024-03-02T11:15:18;7.33;;;4.73;;
8592;SDS011;4334;49.982;8.398;2024-03-02T11:17:47;5.47;;;4.17;;
8592;SDS011;4334;49.982;8.398;2024-03-02T11:20:15;8.87;;;4.37;;
8592;SDS011;4334;49.982;8.398;2024-03-02T11:22:44;5.87;;;4.10;;
8592;SDS011;4334;49.982;8.398;2024-03-02T11:25:23;6.10;;;4.00;;
8592;SDS011;4334;49.982;8.398;2024-03-02T11:28:01;9.17;;;4.90;;
8592;SDS011;4334;49.982;8.398;2024-03-02T11:33:24;6.57;;;4.33;;
8592;SDS011;4334;49.982;8.398;2024-03-02T11:35:55;5.37;;;3.80;;
8592;SDS011;4334;49.982;8.398;2024-03-02T11:38:24;6.50;;;4.03;;
8592;SDS011;4334;49.982;8.398;2024-03-02T11:40:55;6.70;;;4.20;;
8592;SDS011;4334;49.982;8.398;2024-03-02T11:43:22;6.20;;;3.87;;
8592;SDS011;4334;49.982;8.398;2024-03-02T11:45:56;8.37;;;4.37;;
8592;SDS011;4334;49.982;8.398;2024-03-02T11:48:24;6.17;;;3.60;;
8592;SDS011;4334;49.982;8.398;2024-03-02T11:50:51;5.87;;;3.67;;
8592;SDS011;4334;49.982;8.398;2024-03-02T11:53:19;7.60;;;3.93;;
8592;SDS011;4334;49.982;8.398;2024-03-02T11:55:46;4.40;;;3.47;;
8592;SDS011;4334;49.982;8.398;2024-03-02T11:58:16;4.40;;;3.60;;
8592;SDS011;4334;49.982;8.398;2024-03-02T12:00:45;5.43;;;3.63;;
8592;SDS011;4334;49.982;8.398;2024-03-02T12:03:12;4.70;;;3.30;;
8592;SDS011;4334;49.982;8.398;2024-03-02T12:05:40;5.10;;;3.50;;
8592;SDS011;4334;49.982;8.398;2024-03-02T12:08:08;5.67;;;3.40;;
8592;SDS011;4334;49.982;8.398;2024-03-02T12:10:35;3.90;;;2.90;;
8592;SDS011;4334;49.982;8.398;2024-03-02T12:13:03;4.23;;;2.87;;
8592;SDS011;4334;49.982;8.398;2024-03-02T12:15:34;4.20;;;2.80;;
8592;SDS011;4334;49.982;8.398;2024-03-02T12:18:03;4.37;;;2.90;;
8592;SDS011;4334;49.982;8.398;2024-03-02T12:20:31;6.10;;;3.17;;
8592;SDS011;4334;49.982;8.398;2024-03-02T12:22:59;5.18;;;2.88;;
8592;SDS011;4334;49.982;8.398;2024-03-02T12:25:27;4.28;;;2.70;;
8592;SDS011;4334;49.982;8.398;2024-03-02T12:27:54;3.70;;;2.67;;
8592;SDS011;4334;49.982;8.398;2024-03-02T12:30:22;4.97;;;2.85;;
8592;SDS011;4334;49.982;8.398;2024-03-02T12:32:51;3.45;;;2.80;;
8592;SDS011;4334;49.982;8.398;2024-03-02T12:35:18;6.38;;;3.90;;
8592;SDS011;4334;49.982;8.398;2024-03-02T12:37:44;6.00;;;4.40;;
8592;SDS011;4334;49.982;8.398;2024-03-02T12:40:12;2.28;;;2.03;;
8592;SDS011;4334;49.982;8.398;2024-03-02T12:42:39;2.55;;;2.00;;
8592;SDS011;4334;49.982;8.398;2024-03-02T12:45:07;3.42;;;1.85;;
8592;SDS011;4334;49.982;8.398;2024-03-02T12:47:34;2.75;;;1.90;;
8592;SDS011;4334;49.982;8.398;2024-03-02T12:50:04;2.75;;;2.10;;
8592;SDS011;4334;49.982;8.398;2024-03-02T12:52:31;2.45;;;2.00;;
8592;SDS011;4334;49.982;8.398;2024-03-02T12:54:59;2.50;;;2.00;;
8592;SDS011;4334;49.982;8.398;2024-03-02T12:57:28;2.40;;;1.98;;
8592;SDS011;4334;49.982;8.398;2024-03-02T12:59:57;2.60;;;2.05;;
8592;SDS011;4334;49.982;8.398;2024-03-02T13:02:27;2.55;;;2.15;;
8592;SDS011;4334;49.982;8.398;2024-03-02T13:04:54;2.15;;;1.92;;
8592;SDS011;4334;49.982;8.398;2024-03-02T13:07:23;2.53;;;2.33;;
8592;SDS011;4334;49.982;8.398;2024-03-02T13:09:50;3.72;;;2.40;;
8592;SDS011;4334;49.982;8.398;2024-03-02T13:12:16;3.55;;;2.03;;
8592;SDS011;4334;49.982;8.398;2024-03-02T13:14:43;2.65;;;1.98;;
8592;SDS011;4334;49.982;8.398;2024-03-02T13:17:10;3.28;;;1.73;;
8592;SDS011;4334;49.982;8.398;2024-03-02T13:19:43;2.78;;;1.85;;
8592;SDS011;4334;49.982;8.398;2024-03-02T13:22:16;1.70;;;1.60;;
8592;SDS011;4334;49.982;8.398;2024-03-02T13:24:44;2.25;;;1.83;;
8592;SDS011;4334;49.982;8.398;2024-03-02T13:27:11;3.33;;;1.90;;
8592;SDS011;4334;49.982;8.398;2024-03-02T13:29:38;4.13;;;1.83;;
8592;SDS011;4334;49.982;8.398;2024-03-02T13:32:04;2.42;;;1.65;;
8592;SDS011;4334;49.982;8.398;2024-03-02T13:34:31;2.13;;;1.65;;
8592;SDS011;4334;49.982;8.398;2024-03-02T13:36:58;2.25;;;1.80;;
8592;SDS011;4334;49.982;8.398;2024-03-02T13:39:26;2.67;;;1.83;;
8592;SDS011;4334;49.982;8.398;2024-03-02T13:41:57;3.53;;;1.77;;
8592;SDS011;4334;49.982;8.398;2024-03-02T13:44:29;1.63;;;1.50;;
8592;SDS011;4334;49.982;8.398;2024-03-02T13:46:56;2.92;;;2.10;;
8592;SDS011;4334;49.982;8.398;2024-03-02T13:49:23;1.85;;;1.50;;
8592;SDS011;4334;49.982;8.398;2024-03-02T13:51:53;2.58;;;1.80;;
8592;SDS011;4334;49.982;8.398;2024-03-02T13:54:21;2.20;;;1.80;;
8592;SDS011;4334;49.982;8.398;2024-03-02T13:56:48;2.72;;;1.70;;
8592;SDS011;4334;49.982;8.398;2024-03-02T13:59:16;2.00;;;1.75;;
8592;SDS011;4334;49.982;8.398;2024-03-02T14:01:43;3.22;;;1.80;;
8592;SDS011;4334;49.982;8.398;2024-03-02T14:04:10;2.83;;;2.10;;
8592;SDS011;4334;49.982;8.398;2024-03-02T14:06:37;2.30;;;1.80;;
8592;SDS011;4334;49.982;8.398;2024-03-02T14:09:04;2.13;;;1.80;;
8592;SDS011;4334;49.982;8.398;2024-03-02T14:11:31;2.20;;;2.00;;
8592;SDS011;4334;49.982;8.398;2024-03-02T14:13:57;2.17;;;1.70;;
8592;SDS011;4334;49.982;8.398;2024-03-02T14:16:25;2.50;;;1.88;;
8592;SDS011;4334;49.982;8.398;2024-03-02T14:18:52;1.55;;;1.45;;
8592;SDS011;4334;49.982;8.398;2024-03-02T14:21:19;3.92;;;1.60;;
8592;SDS011;4334;49.982;8.398;2024-03-02T14:23:45;2.10;;;1.70;;
8592;SDS011;4334;49.982;8.398;2024-03-02T14:26:12;2.38;;;1.40;;
8592;SDS011;4334;49.982;8.398;2024-03-02T14:28:39;1.63;;;1.48;;
8592;SDS011;4334;49.982;8.398;2024-03-02T14:31:05;1.83;;;1.60;;
8592;SDS011;4334;49.982;8.398;2024-03-02T14:33:33;1.73;;;1.40;;
8592;SDS011;4334;49.982;8.398;2024-03-02T14:36:00;1.52;;;1.20;;
8592;SDS011;4334;49.982;8.398;2024-03-02T14:38:27;1.42;;;1.33;;
8592;SDS011;4334;49.982;8.398;2024-03-02T14:40:54;1.58;;;1.35;;
8592;SDS011;4334;49.982;8.398;2024-03-02T14:43:21;1.50;;;1.40;;
8592;SDS011;4334;49.982;8.398;2024-03-02T14:45:48;3.22;;;1.33;;
8592;SDS011;4334;49.982;8.398;2024-03-02T14:48:15;2.67;;;1.77;;
8592;SDS011;4334;49.982;8.398;2024-03-02T14:50:43;2.05;;;1.50;;
8592;SDS011;4334;49.982;8.398;2024-03-02T14:53:10;1.95;;;1.60;;
8592;SDS011;4334;49.982;8.398;2024-03-02T14:55:37;2.90;;;1.33;;
8592;SDS011;4334;49.982;8.398;2024-03-02T14:58:03;2.00;;;1.58;;
8592;SDS011;4334;49.982;8.398;2024-03-02T15:00:30;2.00;;;1.67;;
8592;SDS011;4334;49.982;8.398;2024-03-02T15:02:57;5.28;;;1.50;;
8592;SDS011;4334;49.982;8.398;2024-03-02T15:05:23;2.88;;;1.75;;
8592;SDS011;4334;49.982;8.398;2024-03-02T15:07:53;2.75;;;1.88;;
8592;SDS011;4334;49.982;8.398;2024-03-02T15:10:20;3.35;;;1.70;;